Time;durP1;ratioP1;P1;durP2;ratioP2;P2;SDS_P1;SDS_P2;PMS_P1;PMS_P2;Temp;Humidity;BMP_temperature;BMP_pressure;BME280_temperature;BME280_humidity;BME280_pressure;Samples;Min_cycle;Max_cycle;Signal;HPM_P1;HPM_P2
2024/03/01 00:01:33;;;;;;;11.73;6.03;;;;;;;10.86;100.00;99867.84;5070796;28;20492;-67
2024/03/01 00:03:59;;;;;;;15.02;6.20;;;;;;;10.89;100.00;99864.06;5072034;28;20131;-67
2024/03/01 00:06:24;;;;;;;12.25;5.85;;;;;;;10.89;100.00;99856.25;5071952;28;20036;-67
2024/03/01 00:08:50;;;;;;;15.10;5.95;;;;;;;10.91;100.00;99862.09;5073031;28;20025;-67
2024/03/01 00:11:15;;;;;;;19.15;5.97;;;;;;;10.92;100.00;99861.94;5072228;28;20396;-66
2024/03/01 00:13:41;;;;;;;11.55;5.60;;;;;;;10.89;100.00;99849.25;5072178;28;20020;-68
2024/03/01 00:16:07;;;;;;;16.42;6.00;;;;;;;10.84;100.00;99856.75;5071634;28;20043;-67
2024/03/01 00:18:32;;;;;;;10.20;5.63;;;;;;;10.82;100.00;99853.50;5074733;28;20107;-67
2024/03/01 00:20:57;;;;;;;11.07;5.72;;;;;;;10.82;100.00;99855.28;5071997;28;20400;-67
2024/03/01 00:23:23;;;;;;;13.25;5.47;;;;;;;10.80;100.00;99852.84;5068334;28;20020;-67
2024/03/01 00:25:49;;;;;;;13.77;5.40;;;;;;;10.82;100.00;99856.09;5067645;28;20032;-67
2024/03/01 00:28:14;;;;;;;14.57;6.53;;;;;;;10.82;100.00;99853.50;5071372;28;20040;-68
2024/03/01 00:30:40;;;;;;;14.27;5.22;;;;;;;10.81;100.00;99851.84;5071769;28;20066;-67
2024/03/01 00:33:05;;;;;;;12.55;5.80;;;;;;;10.82;100.00;99844.84;5072117;28;20126;-67
2024/03/01 00:35:31;;;;;;;12.77;5.40;;;;;;;10.79;100.00;99847.78;5071172;28;20033;-67
2024/03/01 00:37:56;;;;;;;11.77;4.97;;;;;;;10.77;100.00;99842.72;5071468;28;20051;-68
2024/03/01 00:40:22;;;;;;;14.80;4.90;;;;;;;10.79;100.00;99840.78;5068433;28;20103;-67
2024/03/01 00:42:47;;;;;;;14.07;5.68;;;;;;;10.80;100.00;99836.38;5066237;28;20365;-66
2024/03/01 00:45:13;;;;;;;11.65;5.35;;;;;;;10.77;100.00;99842.72;5070599;28;20037;-67
2024/03/01 00:47:49;;;;;;;14.57;6.75;;;;;;;10.86;100.00;99841.78;5071627;28;20032;-67
2024/03/01 00:50:21;;;;;;;12.60;6.30;;;;;;;10.92;100.00;99841.09;5069316;28;20068;-67
2024/03/01 00:52:47;;;;;;;12.48;5.88;;;;;;;10.89;100.00;99836.22;5070627;28;20033;-68
2024/03/01 00:55:13;;;;;;;13.38;5.82;;;;;;;10.85;100.00;99832.31;5068224;28;20115;-67
2024/03/01 00:57:38;;;;;;;13.90;6.57;;;;;;;10.83;100.00;99828.25;5071323;28;20129;-67
2024/03/01 01:00:08;;;;;;;12.25;5.88;;;;;;;10.79;100.00;99822.53;5070622;28;20111;-67
2024/03/01 01:02:34;;;;;;;16.23;5.72;;;;;;;10.75;100.00;99821.22;5070675;28;20393;-67
2024/03/01 01:05:00;;;;;;;10.90;5.22;;;;;;;10.77;100.00;99816.69;5069869;28;20024;-67
2024/03/01 01:07:25;;;;;;;9.90;4.78;;;;;;;10.74;100.00;99819.59;5071629;28;20040;-68
2024/03/01 01:09:51;;;;;;;15.77;6.07;;;;;;;10.71;100.00;99811.28;5071227;28;20468;-66
2024/03/01 01:12:16;;;;;;;14.30;6.00;;;;;;;10.69;100.00;99806.25;5070236;28;20032;-67
2024/03/01 01:14:41;;;;;;;15.45;5.97;;;;;;;10.68;100.00;99799.41;5067420;28;20144;-66
2024/03/01 01:17:07;;;;;;;17.60;5.65;;;;;;;10.64;100.00;99795.50;5070832;28;20559;-67
2024/03/01 01:19:32;;;;;;;12.70;6.63;;;;;;;10.62;100.00;99800.03;5071028;28;20036;-67
2024/03/01 01:21:58;;;;;;;13.50;5.90;;;;;;;10.62;100.00;99794.81;5070887;28;20091;-67
2024/03/01 01:24:23;;;;;;;13.77;5.53;;;;;;;10.63;100.00;99801.66;5067801;28;20430;-67
2024/03/01 01:26:49;;;;;;;13.57;6.50;;;;;;;10.64;100.00;99792.88;5071522;28;20032;-67
2024/03/01 01:29:14;;;;;;;13.40;6.05;;;;;;;10.61;100.00;99785.38;5071297;28;20031;-67
2024/03/01 01:31:39;;;;;;;14.65;6.20;;;;;;;10.62;100.00;99780.00;5072664;28;20461;-67
2024/03/01 01:34:05;;;;;;;14.95;6.78;;;;;;;10.59;100.00;99779.53;5069900;28;20029;-67
2024/03/01 01:36:30;;;;;;;11.63;4.90;;;;;;;10.60;100.00;99779.34;5070126;28;20032;-68
2024/03/01 01:38:56;;;;;;;15.05;5.90;;;;;;;10.56;100.00;99774.63;5062341;28;20494;-67
2024/03/01 01:41:21;;;;;;;14.50;7.00;;;;;;;10.56;100.00;99772.84;5069739;28;20016;-67
2024/03/01 01:43:47;;;;;;;20.00;6.55;;;;;;;10.58;100.00;99773.50;5070581;28;20081;-67
2024/03/01 01:46:16;;;;;;;15.93;5.88;;;;;;;10.57;100.00;99768.44;5068781;28;20115;-67
2024/03/01 01:48:45;;;;;;;15.45;6.25;;;;;;;10.54;100.00;99779.19;5070175;28;20063;-66
2024/03/01 01:51:13;;;;;;;15.40;7.38;;;;;;;10.55;100.00;99778.22;5072847;28;20354;-67
2024/03/01 01:53:39;;;;;;;13.85;6.68;;;;;;;10.55;100.00;99773.81;5070284;28;20024;-66
2024/03/01 01:56:06;;;;;;;14.85;6.90;;;;;;;10.57;100.00;99778.88;5069371;28;20478;-66
2024/03/01 01:58:36;;;;;;;12.68;5.60;;;;;;;10.57;100.00;99774.47;5069787;28;20032;-66
2024/03/01 02:01:07;;;;;;;13.73;7.18;;;;;;;10.50;100.00;99770.88;5072103;28;20067;-67
2024/03/01 02:03:35;;;;;;;13.38;7.00;;;;;;;10.48;100.00;99775.44;5070340;28;20032;-67
2024/03/01 02:06:03;;;;;;;14.85;7.00;;;;;;;10.53;100.00;99777.56;5074382;28;20063;-66
2024/03/01 02:08:33;;;;;;;15.57;7.65;;;;;;;10.57;100.00;99771.88;5075118;28;20040;-67
2024/03/01 02:11:02;;;;;;;15.00;6.78;;;;;;;10.62;100.00;99768.78;5069461;28;20040;-66
2024/03/01 02:13:28;;;;;;;14.57;6.47;;;;;;;10.60;100.00;99774.16;5070022;28;20024;-67
2024/03/01 02:15:54;;;;;;;16.27;7.72;;;;;;;10.61;100.00;99761.94;5069983;28;20078;-67
2024/03/01 02:18:20;;;;;;;15.90;7.22;;;;;;;10.62;100.00;99766.19;5069126;28;20025;-66
2024/03/01 02:20:52;;;;;;;15.95;7.60;;;;;;;10.59;100.00;99761.28;5070096;28;20024;-67
2024/03/01 02:23:24;;;;;;;19.70;7.43;;;;;;;10.58;100.00;99762.25;5068304;28;20036;-67
2024/03/01 02:25:50;;;;;;;18.02;7.93;;;;;;;10.56;100.00;99767.63;5069741;28;20489;-68
2024/03/01 02:28:15;;;;;;;16.73;7.00;;;;;;;10.55;100.00;99765.19;5068609;28;20064;-68
2024/03/01 02:30:41;;;;;;;10.40;5.95;;;;;;;10.52;100.00;99768.94;5067240;28;20116;-68
2024/03/01 02:33:06;;;;;;;13.95;6.70;;;;;;;10.50;100.00;99764.84;5070761;28;20032;-68
2024/03/01 02:35:32;;;;;;;19.50;7.88;;;;;;;10.44;100.00;99753.28;5069776;28;20032;-68
2024/03/01 02:37:57;;;;;;;18.52;7.68;;;;;;;10.40;100.00;99761.59;5069747;28;20040;-67
2024/03/01 02:40:24;;;;;;;17.77;7.30;;;;;;;10.37;100.00;99760.13;5068764;28;20036;-68
2024/03/01 02:42:49;;;;;;;16.27;7.65;;;;;;;10.36;100.00;99752.47;5069016;28;20033;-68
2024/03/01 02:45:15;;;;;;;14.70;6.65;;;;;;;10.36;100.00;99747.28;5068800;28;20036;-68
2024/03/01 02:47:40;;;;;;;18.30;7.70;;;;;;;10.34;100.00;99749.22;5067824;28;20039;-68
2024/03/01 02:50:09;;;;;;;16.67;7.22;;;;;;;10.32;100.00;99752.00;5067295;28;20512;-68
2024/03/01 02:52:35;;;;;;;20.33;7.72;;;;;;;10.28;100.00;99745.47;5071775;28;20024;-68
2024/03/01 02:55:03;;;;;;;17.83;7.20;;;;;;;10.23;100.00;99738.13;5071122;28;20028;-67
2024/03/01 02:57:29;;;;;;;15.15;7.30;;;;;;;10.23;100.00;99735.53;5069213;28;20094;-68
2024/03/01 02:59:54;;;;;;;19.10;7.60;;;;;;;10.23;100.00;99734.72;5068697;28;20029;-67
2024/03/01 03:02:20;;;;;;;19.58;8.38;;;;;;;10.22;100.00;99746.91;5068535;28;20517;-67
2024/03/01 03:04:46;;;;;;;17.92;7.65;;;;;;;10.23;100.00;99748.53;5070029;28;20036;-67
2024/03/01 03:07:11;;;;;;;16.38;7.50;;;;;;;10.26;100.00;99748.22;5068777;28;20459;-67
2024/03/01 03:09:43;;;;;;;18.63;7.35;;;;;;;10.24;100.00;99755.38;5068968;28;20028;-67
2024/03/01 03:12:09;;;;;;;15.68;6.65;;;;;;;10.23;100.00;99751.16;5068457;28;20497;-68
2024/03/01 03:14:35;;;;;;;18.73;7.80;;;;;;;10.22;100.00;99736.50;5074920;28;20111;-67
2024/03/01 03:17:00;;;;;;;16.92;8.07;;;;;;;10.22;100.00;99741.72;5071972;28;20123;-66
2024/03/01 03:19:26;;;;;;;15.60;7.38;;;;;;;10.22;100.00;99736.50;5066478;28;20123;-67
2024/03/01 03:21:51;;;;;;;17.13;7.03;;;;;;;10.21;100.00;99737.47;5072939;28;20032;-67
2024/03/01 03:24:18;;;;;;;18.83;7.78;;;;;;;10.17;100.00;99730.94;5072363;28;20168;-68
2024/03/01 03:26:44;;;;;;;21.05;7.22;;;;;;;10.16;100.00;99733.69;5072972;28;20040;-67
2024/03/01 03:29:10;;;;;;;15.82;8.18;;;;;;;10.14;100.00;99736.44;5076052;28;20024;-67
2024/03/01 03:31:35;;;;;;;18.65;7.40;;;;;;;10.12;100.00;99737.59;5070285;28;20028;-67
2024/03/01 03:34:01;;;;;;;19.00;7.03;;;;;;;10.08;100.00;99733.66;5071876;28;20037;-67
2024/03/01 03:36:26;;;;;;;17.50;7.88;;;;;;;10.07;100.00;99727.66;5072706;28;20024;-66
2024/03/01 03:38:51;;;;;;;14.70;7.30;;;;;;;10.04;100.00;99732.34;5067316;28;20021;-67
2024/03/01 03:41:17;;;;;;;13.88;6.07;;;;;;;10.03;100.00;99730.72;5074549;28;20035;-66
2024/03/01 03:43:42;;;;;;;20.05;7.93;;;;;;;10.03;100.00;99730.72;5077702;28;20500;-66
2024/03/01 03:46:07;;;;;;;17.50;6.60;;;;;;;10.02;100.00;99734.28;5072591;28;20397;-67
2024/03/01 03:48:33;;;;;;;16.73;7.95;;;;;;;10.01;100.00;99737.88;5072100;28;20064;-66
2024/03/01 03:50:59;;;;;;;16.95;7.15;;;;;;;10.00;100.00;99739.66;5071129;28;20043;-66
2024/03/01 03:53:24;;;;;;;27.88;8.40;;;;;;;9.91;100.00;99731.03;5072249;28;20040;-66
2024/03/01 03:55:50;;;;;;;18.77;9.10;;;;;;;9.86;100.00;99740.28;5075162;28;20036;-67
2024/03/01 03:58:16;;;;;;;17.85;8.20;;;;;;;9.85;100.00;99733.44;5074538;28;20484;-66
2024/03/01 04:00:41;;;;;;;15.18;7.72;;;;;;;9.90;100.00;99731.19;5072503;28;20028;-67
2024/03/01 04:03:06;;;;;;;20.17;7.70;;;;;;;9.92;100.00;99726.66;5077276;28;20032;-66
2024/03/01 04:05:32;;;;;;;17.95;7.82;;;;;;;9.93;100.00;99730.84;5073544;28;20036;-66
2024/03/01 04:07:57;;;;;;;15.95;7.65;;;;;;;9.92;100.00;99718.84;5071973;28;20401;-67
2024/03/01 04:10:23;;;;;;;19.63;8.15;;;;;;;9.92;100.00;99718.84;5071083;28;20036;-66
2024/03/01 04:12:48;;;;;;;17.38;8.52;;;;;;;9.90;100.00;99720.78;5072002;28;20109;-66
2024/03/01 04:15:14;;;;;;;19.75;7.35;;;;;;;9.88;100.00;99722.72;5070944;28;20049;-66
2024/03/01 04:17:40;;;;;;;21.63;7.60;;;;;;;9.88;100.00;99720.13;5075433;28;20529;-66
2024/03/01 04:20:07;;;;;;;16.35;7.47;;;;;;;9.88;100.00;99718.34;5069554;28;20047;-66
2024/03/01 04:22:33;;;;;;;17.88;7.72;;;;;;;9.88;100.00;99720.13;5071355;28;20797;-66
2024/03/01 04:24:58;;;;;;;14.40;7.18;;;;;;;9.88;100.00;99717.53;5071252;28;20047;-66
2024/03/01 04:27:24;;;;;;;14.82;7.00;;;;;;;9.86;100.00;99717.69;5063530;28;20032;-67
2024/03/01 04:29:49;;;;;;;18.33;8.02;;;;;;;9.85;100.00;99715.25;5070550;28;20086;-66
2024/03/01 04:32:17;;;;;;;21.48;7.85;;;;;;;9.81;100.00;99716.53;5070307;28;20032;-67
2024/03/01 04:34:44;;;;;;;12.77;6.75;;;;;;;9.80;100.00;99714.91;5078243;28;20113;-66
2024/03/01 04:37:09;;;;;;;14.73;7.43;;;;;;;9.80;100.00;99709.69;5069937;28;20028;-67
2024/03/01 04:39:35;;;;;;;21.90;8.60;;;;;;;9.74;100.00;99715.53;5071175;28;20028;-66
2024/03/01 04:42:01;;;;;;;21.30;8.07;;;;;;;9.72;100.00;99707.88;5069951;28;20020;-67
2024/03/01 04:44:26;;;;;;;23.05;9.23;;;;;;;9.74;100.00;99711.13;5073817;28;20040;-66
2024/03/01 04:46:51;;;;;;;21.00;8.63;;;;;;;9.73;100.00;99708.69;5073723;28;20082;-66
2024/03/01 04:49:17;;;;;;;15.98;8.88;;;;;;;9.76;100.00;99692.78;5072664;28;20123;-66
2024/03/01 04:51:43;;;;;;;16.55;7.80;;;;;;;9.78;100.00;99706.44;5076658;28;20044;-67
2024/03/01 04:54:08;;;;;;;17.05;8.00;;;;;;;9.75;100.00;99702.34;5070526;28;20048;-66
2024/03/01 04:56:34;;;;;;;19.83;8.35;;;;;;;9.74;100.00;99699.91;5070882;28;20126;-66
2024/03/01 04:58:59;;;;;;;19.40;8.70;;;;;;;9.63;100.00;99704.44;5068445;28;20090;-66
2024/03/01 05:01:24;;;;;;;19.42;7.28;;;;;;;9.65;100.00;99701.66;5072973;28;20050;-66
2024/03/01 05:03:50;;;;;;;19.85;7.72;;;;;;;9.68;100.00;99692.75;5070818;28;20042;-66
2024/03/01 05:06:16;;;;;;;23.88;8.55;;;;;;;9.71;100.00;99692.44;5070080;28;20489;-67
2024/03/01 05:08:41;;;;;;;19.48;8.48;;;;;;;9.72;100.00;99691.44;5070486;28;20028;-65
2024/03/01 05:11:07;;;;;;;19.55;8.57;;;;;;;9.75;100.00;99680.72;5068719;28;20119;-66
2024/03/01 05:13:32;;;;;;;14.73;7.88;;;;;;;9.76;100.00;99685.78;5071221;28;20020;-66
2024/03/01 05:15:59;;;;;;;19.30;8.98;;;;;;;9.76;100.00;99687.56;5070343;28;20033;-66
2024/03/01 05:18:24;;;;;;;20.95;7.97;;;;;;;9.72;100.00;99686.25;5067604;28;20063;-66
2024/03/01 05:20:53;;;;;;;17.08;8.57;;;;;;;9.71;100.00;99680.22;5069474;28;20056;-66
2024/03/01 05:23:19;;;;;;;19.35;9.15;;;;;;;9.75;100.00;99683.34;5069267;28;20044;-66
2024/03/01 05:25:44;;;;;;;18.88;7.63;;;;;;;9.77;100.00;99673.59;5070481;28;20110;-66
2024/03/01 05:28:09;;;;;;;16.73;8.43;;;;;;;9.76;100.00;99675.38;5070540;28;20046;-66
2024/03/01 05:30:38;;;;;;;16.00;7.95;;;;;;;9.75;100.00;99675.53;5070304;28;20025;-66
2024/03/01 05:33:04;;;;;;;19.88;8.27;;;;;;;9.77;100.00;99671.00;5064947;28;20094;-66
2024/03/01 05:35:30;;;;;;;22.13;8.57;;;;;;;9.76;100.00;99670.16;5064577;28;20036;-66
2024/03/01 05:37:58;;;;;;;22.13;8.52;;;;;;;9.76;100.00;99677.16;5073725;28;20496;-66
2024/03/01 05:40:24;;;;;;;16.63;6.75;;;;;;;9.78;100.00;99675.22;5070118;28;20024;-66
2024/03/01 05:42:50;;;;;;;14.38;7.18;;;;;;;9.75;100.00;99671.16;5070939;28;20032;-66
2024/03/01 05:45:16;;;;;;;14.90;7.45;;;;;;;9.75;100.00;99668.53;5069663;28;20024;-65
2024/03/01 05:47:43;;;;;;;16.23;8.15;;;;;;;9.73;100.00;99669.66;5069800;28;20030;-66
2024/03/01 05:50:11;;;;;;;19.83;8.23;;;;;;;9.72;100.00;99668.84;5068145;28;20036;-66
2024/03/01 05:52:42;;;;;;;19.45;8.00;;;;;;;9.70;100.00;99677.78;5070417;28;20033;-66
2024/03/01 05:55:12;;;;;;;17.48;8.45;;;;;;;9.71;100.00;99671.63;5069582;28;20041;-65
2024/03/01 05:57:39;;;;;;;20.52;8.88;;;;;;;9.74;100.00;99673.91;5070158;28;20098;-66
2024/03/01 06:00:17;;;;;;;18.95;7.85;;;;;;;9.75;100.00;99675.53;5069036;28;20036;-66
2024/03/01 06:02:44;;;;;;;25.65;8.98;;;;;;;9.77;100.00;99678.78;5070250;28;20036;-66
2024/03/01 06:05:11;;;;;;;16.80;8.65;;;;;;;9.77;100.00;99684.81;5069184;28;20040;-65
2024/03/01 06:07:36;;;;;;;20.52;9.82;;;;;;;9.79;100.00;99679.44;5069671;28;20036;-65
2024/03/01 06:10:02;;;;;;;16.83;9.30;;;;;;;9.79;100.00;99682.06;5069306;28;20477;-65
2024/03/01 06:12:27;;;;;;;19.38;9.43;;;;;;;9.78;100.00;99686.44;5069718;28;20113;-66
2024/03/01 06:14:52;;;;;;;20.92;8.70;;;;;;;9.81;100.00;99686.13;5069135;28;20059;-66
2024/03/01 06:17:18;;;;;;;17.08;7.47;;;;;;;9.82;100.00;99689.53;5068661;28;20036;-66
2024/03/01 06:19:43;;;;;;;19.20;8.20;;;;;;;9.83;100.00;99683.38;5069555;28;20107;-66
2024/03/01 06:22:09;;;;;;;15.52;7.70;;;;;;;9.86;100.00;99688.25;5068701;28;20474;-66
2024/03/01 06:24:34;;;;;;;21.10;8.82;;;;;;;9.87;100.00;99693.28;5067243;28;20029;-66
2024/03/01 06:26:59;;;;;;;17.77;7.63;;;;;;;9.87;100.00;99695.09;5068771;28;20493;-66
2024/03/01 06:29:25;;;;;;;18.40;7.65;;;;;;;9.91;100.00;99701.59;5069662;28;20123;-66
2024/03/01 06:31:50;;;;;;;17.67;8.07;;;;;;;9.93;100.00;99699.63;5069349;28;20037;-67
2024/03/01 06:34:16;;;;;;;22.20;8.93;;;;;;;9.94;100.00;99693.44;5068588;28;20039;-66
2024/03/01 06:36:41;;;;;;;18.73;8.65;;;;;;;9.89;100.00;99700.94;5069552;28;20024;-66
2024/03/01 06:39:08;;;;;;;14.38;8.48;;;;;;;9.87;100.00;99700.28;5068628;28;20367;-66
2024/03/01 06:41:34;;;;;;;21.27;9.70;;;;;;;9.85;100.00;99699.63;5069541;28;20086;-66
2024/03/01 06:43:59;;;;;;;22.08;9.40;;;;;;;9.85;100.00;99699.63;5069140;28;20036;-66
2024/03/01 06:46:24;;;;;;;20.90;8.20;;;;;;;9.88;100.00;99701.91;5067858;28;20040;-66
2024/03/01 06:48:50;;;;;;;15.25;9.15;;;;;;;9.98;100.00;99695.56;5086226;28;20035;-66
2024/03/01 06:51:15;;;;;;;23.02;12.27;;;;;;;10.08;100.00;99707.63;5092518;28;20127;-66
2024/03/01 06:53:44;;;;;;;35.90;16.17;;;;;;;10.10;100.00;99706.50;5081938;28;20031;-67
2024/03/01 06:56:10;;;;;;;37.90;17.50;;;;;;;10.15;100.00;99714.66;5091983;28;20032;-66
2024/03/01 06:58:35;;;;;;;37.42;17.65;;;;;;;10.18;100.00;99710.91;5092722;28;20119;-66
2024/03/01 07:01:04;;;;;;;37.33;14.38;;;;;;;10.21;100.00;99711.44;5090535;28;20142;-66
2024/03/01 07:03:30;;;;;;;29.50;11.52;;;;;;;10.23;100.00;99714.72;5091895;28;20031;-66
2024/03/01 07:05:55;;;;;;;22.45;11.90;;;;;;;10.22;100.00;99713.06;5092967;28;20031;-66
2024/03/01 07:08:21;;;;;;;20.20;10.15;;;;;;;10.29;100.00;99724.47;5092155;28;20057;-67
2024/03/01 07:10:46;;;;;;;24.60;10.15;;;;;;;10.34;100.00;99724.00;5092210;28;20036;-67
2024/03/01 07:13:12;;;;;;;17.63;9.75;;;;;;;10.37;100.00;99728.88;5091723;28;20115;-66
2024/03/01 07:15:37;;;;;;;21.92;9.57;;;;;;;10.37;100.00;99726.28;5091604;28;20080;-66
2024/03/01 07:18:03;;;;;;;17.30;8.35;;;;;;;10.38;100.00;99734.91;5091712;28;20052;-66
2024/03/01 07:20:29;;;;;;;25.70;9.57;;;;;;;10.36;100.00;99727.25;5091253;28;20503;-67
2024/03/01 07:22:55;;;;;;;21.23;9.88;;;;;;;10.34;100.00;99725.78;5092943;28;20118;-66
2024/03/01 07:25:20;;;;;;;19.20;8.50;;;;;;;10.30;100.00;99733.91;5092111;28;20020;-66
2024/03/01 07:27:46;;;;;;;23.75;10.57;;;;;;;10.30;100.00;99733.09;5092517;28;20485;-66
2024/03/01 07:30:11;;;;;;;23.55;10.05;;;;;;;10.38;100.00;99740.13;5090969;28;20044;-66
2024/03/01 07:32:37;;;;;;;19.52;10.02;;;;;;;10.41;100.00;99737.97;5092104;28;20035;-66
2024/03/01 07:35:04;;;;;;;20.15;10.75;;;;;;;10.45;100.00;99735.88;5091586;28;20043;-66
2024/03/01 07:37:32;;;;;;;21.55;10.13;;;;;;;10.42;100.00;99736.19;5092897;28;20485;-66
2024/03/01 07:39:58;;;;;;;18.98;10.35;;;;;;;10.43;100.00;99732.59;5092029;28;20028;-66
2024/03/01 07:42:24;;;;;;;18.20;10.27;;;;;;;10.48;100.00;99733.75;5090502;28;20031;-67
2024/03/01 07:44:50;;;;;;;16.23;9.27;;;;;;;10.47;100.00;99741.72;5074346;28;20034;-66
2024/03/01 07:47:15;;;;;;;17.58;9.85;;;;;;;10.50;100.00;99737.00;5088781;28;20423;-67
2024/03/01 07:49:41;;;;;;;15.80;9.65;;;;;;;10.57;100.00;99750.22;5090692;28;20051;-67
2024/03/01 07:52:06;;;;;;;24.33;10.90;;;;;;;10.57;100.00;99745.81;5091680;28;20028;-66
2024/03/01 07:54:32;;;;;;;21.42;10.02;;;;;;;10.57;100.00;99740.59;5091246;28;20443;-66
2024/03/01 07:56:57;;;;;;;19.30;10.25;;;;;;;10.59;100.00;99750.88;5091484;28;20040;-67
2024/03/01 07:59:23;;;;;;;17.42;9.57;;;;;;;10.59;100.00;99748.25;5090178;28;20032;-67
2024/03/01 08:01:48;;;;;;;18.65;8.80;;;;;;;10.58;100.00;99750.06;5089878;28;20028;-67
2024/03/01 08:04:14;;;;;;;17.35;8.98;;;;;;;10.54;100.00;99745.31;5090801;28;20024;-67
2024/03/01 08:06:40;;;;;;;20.23;8.52;;;;;;;10.48;100.00;99757.19;5090720;28;20374;-67
2024/03/01 08:09:16;;;;;;;19.50;8.57;;;;;;;10.47;100.00;99767.78;5088846;28;20081;-67
2024/03/01 08:11:44;;;;;;;23.27;10.88;;;;;;;10.50;100.00;99775.28;5087998;28;20101;-67
2024/03/01 08:14:27;;;;;;;23.95;8.73;;;;;;;10.51;100.00;99779.50;5073240;28;20097;-67
2024/03/01 08:16:53;;;;;;;25.98;10.05;;;;;;;10.49;100.00;99784.06;5087560;28;20094;-67
2024/03/01 08:19:37;;;;;;;28.25;11.10;;;;;;;10.40;100.00;99785.81;5091070;28;20511;-66
2024/03/01 08:22:12;;;;;;;22.67;11.68;;;;;;;10.30;100.00;99786.00;5091101;28;20489;-66
2024/03/01 08:24:40;;;;;;;16.73;9.38;;;;;;;10.29;100.00;99784.38;5087300;28;20031;-66
2024/03/01 08:27:06;;;;;;;20.70;10.00;;;;;;;10.32;100.00;99785.03;5089690;28;20342;-65
2024/03/01 08:29:40;;;;;;;17.85;9.45;;;;;;;10.19;100.00;99794.09;5091159;28;20481;-67
2024/03/01 08:32:31;;;;;;;16.92;8.57;;;;;;;10.11;100.00;99790.63;5089350;28;20066;-66
2024/03/01 08:34:58;;;;;;;24.50;10.02;;;;;;;10.07;100.00;99791.91;5090154;28;20432;-67
2024/03/01 08:37:29;;;;;;;20.60;10.00;;;;;;;10.15;100.00;99792.75;5089967;28;20126;-67
2024/03/01 08:39:55;;;;;;;20.52;9.70;;;;;;;10.22;100.00;99791.19;5089518;28;20032;-67
2024/03/01 08:42:22;;;;;;;22.63;10.55;;;;;;;10.15;100.00;99789.31;5090827;28;20437;-66
2024/03/01 08:44:54;;;;;;;21.35;10.48;;;;;;;10.13;100.00;99799.91;5090692;28;20047;-67
2024/03/01 08:47:23;;;;;;;20.92;10.18;;;;;;;10.17;100.00;99796.00;5089543;28;20031;-66
2024/03/01 08:49:49;;;;;;;25.73;11.23;;;;;;;10.14;100.00;99798.09;5090640;28;20489;-67
2024/03/01 08:52:33;;;;;;;23.30;10.35;;;;;;;10.27;100.00;99799.31;5088591;28;20047;-66
2024/03/01 08:55:20;;;;;;;17.42;8.95;;;;;;;10.40;100.00;99805.88;5086975;28;20024;-67
2024/03/01 08:57:47;;;;;;;22.00;10.95;;;;;;;10.52;100.00;99801.97;5087607;28;20077;-67
2024/03/01 09:00:36;;;;;;;21.80;10.07;;;;;;;10.50;100.00;99814.34;5088163;28;20032;-67
2024/03/01 09:03:03;;;;;;;21.15;11.18;;;;;;;10.56;100.00;99811.09;5090365;28;20028;-67
2024/03/01 09:05:30;;;;;;;20.05;10.52;;;;;;;10.52;100.00;99815.00;5088757;28;20043;-66
2024/03/01 09:08:00;;;;;;;20.90;10.25;;;;;;;10.60;100.00;99809.81;5090086;28;20035;-67
2024/03/01 09:10:32;;;;;;;20.80;10.20;;;;;;;10.58;100.00;99814.34;5087056;28;20032;-66
2024/03/01 09:12:58;;;;;;;19.88;10.18;;;;;;;10.54;100.00;99808.66;5071856;28;20059;-67
2024/03/01 09:15:26;;;;;;;19.75;9.50;;;;;;;10.56;100.00;99816.31;5087095;28;20489;-67
2024/03/01 09:17:54;;;;;;;24.02;10.10;;;;;;;10.53;100.00;99822.66;5089557;28;20032;-66
2024/03/01 09:20:33;;;;;;;22.48;9.65;;;;;;;10.57;100.00;99828.34;5089613;28;20409;-66
2024/03/01 09:22:59;;;;;;;16.98;8.95;;;;;;;10.38;100.00;99823.44;5088900;28;20028;-67
2024/03/01 09:25:43;;;;;;;20.73;9.57;;;;;;;10.25;100.00;99822.09;5086754;28;20089;-66
2024/03/01 09:28:09;;;;;;;19.27;9.30;;;;;;;10.23;100.00;99820.63;5088514;28;20046;-66
2024/03/01 09:30:35;;;;;;;19.30;9.45;;;;;;;10.22;100.00;99814.59;5070456;28;20081;-66
2024/03/01 09:33:02;;;;;;;19.65;8.95;;;;;;;10.25;100.00;99814.28;5090144;28;20036;-66
2024/03/01 09:35:30;;;;;;;23.20;9.60;;;;;;;10.29;100.00;99818.22;5090533;28;20032;-66
2024/03/01 09:37:56;;;;;;;19.33;9.38;;;;;;;10.29;100.00;99826.03;5088702;28;20199;-66
2024/03/01 09:40:27;;;;;;;17.75;9.00;;;;;;;10.28;100.00;99816.56;5088062;28;20121;-66
2024/03/01 09:43:04;;;;;;;22.20;9.02;;;;;;;10.28;100.00;99813.97;5085558;28;20032;-66
2024/03/01 09:46:08;;;;;;;19.10;9.45;;;;;;;10.30;100.00;99812.03;5087365;28;20488;-66
2024/03/01 09:48:49;;;;;;;21.77;8.27;;;;;;;10.35;100.00;99805.53;5083680;28;20078;-66
2024/03/01 09:51:40;;;;;;;21.88;9.93;;;;;;;10.39;100.00;99807.66;5087824;28;20492;-66
2024/03/01 09:54:10;;;;;;;18.10;8.77;;;;;;;10.39;100.00;99794.66;5086527;28;20047;-66
2024/03/01 09:56:52;;;;;;;20.02;9.52;;;;;;;10.42;100.00;99793.47;5089259;28;20074;-66
2024/03/01 09:59:48;;;;;;;20.60;7.40;;;;;;;10.39;100.00;99804.25;5087226;28;20055;-66
2024/03/01 10:02:16;;;;;;;19.55;7.65;;;;;;;10.37;100.00;99800.97;5086873;28;20024;-66
2024/03/01 10:05:04;;;;;;;17.92;8.13;;;;;;;10.49;100.00;99799.69;5085377;28;20484;-66
2024/03/01 10:07:40;;;;;;;16.92;7.70;;;;;;;10.71;100.00;99806.91;5071710;28;20094;-66
2024/03/01 10:10:09;;;;;;;17.23;8.45;;;;;;;10.80;100.00;99810.31;5086113;28;20130;-66
2024/03/01 10:13:02;;;;;;;16.48;9.38;;;;;;;10.84;100.00;99812.44;5089092;28;20473;-67
2024/03/01 10:15:28;;;;;;;16.58;8.23;;;;;;;10.91;100.00;99816.00;5088129;28;20039;-68
2024/03/01 10:18:46;;;;;;;22.05;9.60;;;;;;;11.04;100.00;99810.31;5082190;28;20717;-66
2024/03/01 10:21:41;;;;;;;17.65;8.43;;;;;;;11.18;100.00;99808.84;5067127;28;20032;-66
2024/03/01 10:24:27;;;;;;;17.25;7.95;;;;;;;11.25;100.00;99805.44;5073405;28;20054;-66
2024/03/01 10:27:23;;;;;;;10.93;6.10;;;;;;;11.28;100.00;99812.13;5085925;28;20114;-66
2024/03/01 10:30:15;;;;;;;12.38;5.13;;;;;;;11.24;100.00;99802.97;5075766;28;20047;-66
2024/03/01 10:33:10;;;;;;;21.23;5.70;;;;;;;10.93;100.00;99797.59;5085175;28;20394;-66
2024/03/01 10:36:00;;;;;;;11.23;5.57;;;;;;;10.95;100.00;99790.44;5082517;28;20047;-66
2024/03/01 10:38:25;;;;;;;14.63;5.75;;;;;;;11.13;100.00;99798.91;5083328;28;20043;-67
2024/03/01 10:41:04;;;;;;;11.23;5.50;;;;;;;11.23;100.00;99788.31;5086472;28;20021;-66
2024/03/01 10:43:51;;;;;;;10.50;6.40;;;;;;;11.24;100.00;99784.72;5084679;28;20056;-65
2024/03/01 10:46:47;;;;;;;18.45;6.13;;;;;;;11.19;100.00;99773.97;5067107;28;20028;-66
2024/03/01 10:49:31;;;;;;;13.32;6.40;;;;;;;11.20;100.00;99778.22;5076495;28;20044;-66
2024/03/01 10:52:10;;;;;;;11.35;5.78;;;;;;;11.14;100.00;99774.47;5087810;28;20040;-66
2024/03/01 10:54:36;;;;;;;11.40;5.75;;;;;;;11.18;100.00;99769.75;5085274;28;20119;-66
2024/03/01 10:57:07;;;;;;;9.90;5.07;;;;;;;11.16;100.00;99756.06;5084640;28;20044;-66
2024/03/01 10:59:44;;;;;;;11.20;5.05;;;;;;;11.01;100.00;99757.69;5088583;28;20035;-66
2024/03/01 11:02:15;;;;;;;8.20;4.30;;;;;;;10.93;100.00;99746.28;5080394;28;20032;-66
2024/03/01 11:05:04;;;;;;;9.90;4.95;;;;;;;10.88;100.00;99745.97;5085861;28;20034;-66
2024/03/01 11:07:54;;;;;;;8.20;4.20;;;;;;;10.85;100.00;99742.91;5084860;28;20055;-66
2024/03/01 11:10:27;;;;;;;5.80;3.50;;;;;;;10.83;100.00;99748.28;5082884;28;20047;-66
2024/03/01 11:12:59;;;;;;;5.60;2.35;;;;;;;10.78;100.00;99742.75;5084736;28;20035;-66
2024/03/01 11:15:28;;;;;;;5.32;2.72;;;;;;;10.81;100.00;99750.25;5086872;28;20035;-65
2024/03/01 11:17:55;;;;;;;8.45;2.90;;;;;;;10.88;100.00;99745.97;5078775;28;20035;-66
2024/03/01 11:20:25;;;;;;;5.82;2.00;;;;;;;10.87;100.00;99752.16;5085866;28;20036;-66
2024/03/01 11:23:02;;;;;;;4.82;2.08;;;;;;;10.81;100.00;99739.81;5088185;28;20028;-66
2024/03/01 11:26:12;;;;;;;2.40;1.23;;;;;;;10.78;100.00;99736.72;5085105;28;20031;-66
2024/03/01 11:28:40;;;;;;;3.03;1.20;;;;;;;10.69;100.00;99725.47;5066208;28;20173;-65